createdAt,value
2019-03-18T00:00:01.802Z,20.43
2019-03-18T00:02:30.002Z,23.97
2019-03-18T00:04:58.200Z,24.07
2019-03-18T00:07:26.399Z,16.67
2019-03-18T00:09:54.587Z,22.03
2019-03-18T00:12:22.802Z,13.83
2019-03-18T00:15:00.694Z,18.10
2019-03-18T00:17:20.929Z,11.97
2019-03-18T00:19:49.128Z,13.90
2019-03-18T00:22:17.325Z,14.23
2019-03-18T00:24:45.528Z,11.07
2019-03-18T00:27:13.729Z,12.97
2019-03-18T00:29:41.933Z,21.33
2019-03-18T00:32:10.127Z,10.83
2019-03-18T00:34:38.321Z,21.80
2019-03-18T00:37:06.507Z,14.73
2019-03-18T00:39:34.702Z,16.17
2019-03-18T00:42:02.888Z,21.00
2019-03-18T00:44:31.090Z,17.20
2019-03-18T00:46:59.281Z,15.63
2019-03-18T00:49:27.481Z,11.27
2019-03-18T00:51:55.673Z,18.03
2019-03-18T00:54:23.891Z,14.17
2019-03-18T00:56:52.087Z,11.30
2019-03-18T00:59:20.298Z,12.47
2019-03-18T01:01:48.486Z,10.20
2019-03-18T01:04:16.690Z,12.13
2019-03-18T01:06:44.885Z,12.80
2019-03-18T01:09:13.160Z,7.43
2019-03-18T01:11:41.352Z,8.60
2019-03-18T01:14:09.542Z,8.10
2019-03-18T01:16:37.730Z,13.03
2019-03-18T01:19:05.942Z,15.23
2019-03-18T01:21:34.135Z,11.87
2019-03-18T01:24:02.322Z,11.30
2019-03-18T01:26:30.529Z,11.50
2019-03-18T01:28:58.794Z,18.80
2019-03-18T01:31:26.996Z,8.70
2019-03-18T01:33:55.186Z,17.00
2019-03-18T01:36:23.401Z,14.00
2019-03-18T01:38:51.581Z,16.10
2019-03-18T01:41:19.788Z,20.20
2019-03-18T01:43:47.969Z,19.60
2019-03-18T01:46:16.178Z,21.33
2019-03-18T01:48:44.365Z,18.00
2019-03-18T01:51:12.565Z,24.73
2019-03-18T01:53:40.760Z,26.93
2019-03-18T01:56:08.958Z,29.47
2019-03-18T01:58:37.145Z,24.20
2019-03-18T02:01:05.344Z,20.43
2019-03-18T02:03:33.545Z,29.17
2019-03-18T02:06:01.758Z,28.97
2019-03-18T02:08:29.946Z,27.77
2019-03-18T02:10:58.154Z,19.93
2019-03-18T02:13:26.339Z,26.37
2019-03-18T02:15:54.609Z,31.80
2019-03-18T02:18:22.804Z,26.37
2019-03-18T02:20:51.001Z,27.77
2019-03-18T02:23:20.658Z,23.67
2019-03-18T02:25:48.860Z,26.83
2019-03-18T02:28:17.061Z,22.50
2019-03-18T02:30:45.275Z,33.23
2019-03-18T02:33:13.459Z,28.30
2019-03-18T02:35:41.660Z,34.03
2019-03-18T02:38:09.855Z,38.60
2019-03-18T02:40:38.062Z,45.50
2019-03-18T02:43:06.256Z,39.03
2019-03-18T02:45:34.457Z,27.63
2019-03-18T02:48:02.663Z,44.13
2019-03-18T02:50:31.580Z,26.77
2019-03-18T02:52:59.770Z,37.23
2019-03-18T02:55:27.972Z,39.50
2019-03-18T02:57:56.177Z,36.17
2019-03-18T03:00:24.381Z,27.07
2019-03-18T03:02:52.569Z,35.10
2019-03-18T03:05:20.767Z,33.83
2019-03-18T03:07:48.955Z,25.07
2019-03-18T03:10:17.160Z,43.37
2019-03-18T03:12:45.359Z,30.97
2019-03-18T03:15:14.572Z,32.10
2019-03-18T03:17:42.852Z,40.40
2019-03-18T03:20:11.326Z,33.73
2019-03-18T03:22:39.572Z,39.83
2019-03-18T03:25:09.635Z,33.77
2019-03-18T03:27:37.810Z,39.93
2019-03-18T03:30:09.073Z,40.87
2019-03-18T03:32:37.317Z,33.23
2019-03-18T03:35:06.310Z,31.43
2019-03-18T03:37:34.519Z,25.73
2019-03-18T03:40:02.725Z,35.30
2019-03-18T03:42:30.922Z,28.50
2019-03-18T03:44:59.111Z,42.90
2019-03-18T03:47:27.312Z,33.90
2019-03-18T03:49:55.518Z,24.33
2019-03-18T03:52:23.705Z,33.20
2019-03-18T03:54:51.918Z,30.30
2019-03-18T03:57:20.121Z,26.87
2019-03-18T03:59:48.314Z,24.50
2019-03-18T04:02:16.528Z,20.97
2019-03-18T04:04:44.718Z,14.00
2019-03-18T04:07:12.910Z,20.10
2019-03-18T04:09:41.125Z,20.87
2019-03-18T04:12:09.335Z,20.17
2019-03-18T04:14:37.525Z,17.67
2019-03-18T04:17:05.719Z,23.80
2019-03-18T04:19:33.924Z,22.27
2019-03-18T04:22:02.115Z,20.33
2019-03-18T04:24:30.332Z,14.83
2019-03-18T04:26:58.503Z,23.93
2019-03-18T04:29:26.705Z,18.97
2019-03-18T04:31:54.902Z,28.27
2019-03-18T04:34:23.116Z,22.90
2019-03-18T04:36:51.310Z,31.17
2019-03-18T04:39:19.510Z,27.30
2019-03-18T04:41:47.710Z,28.87
2019-03-18T04:44:15.899Z,23.73
2019-03-18T04:46:44.102Z,35.60
2019-03-18T04:49:12.295Z,37.60
2019-03-18T04:51:40.496Z,27.67
2019-03-18T04:54:08.698Z,21.13
2019-03-18T04:56:36.892Z,17.37
2019-03-18T04:59:05.078Z,32.27
2019-03-18T05:01:33.293Z,37.80
2019-03-18T05:04:01.478Z,24.13
2019-03-18T05:06:29.682Z,37.57
2019-03-18T05:08:57.872Z,27.43
2019-03-18T05:11:26.070Z,33.93
2019-03-18T05:13:54.370Z,23.30
2019-03-18T05:16:22.708Z,30.77
2019-03-18T05:18:50.899Z,31.63
2019-03-18T05:21:19.100Z,31.10
2019-03-18T05:23:47.284Z,26.57
2019-03-18T05:26:15.484Z,44.70
2019-03-18T05:28:43.676Z,25.83
2019-03-18T05:31:11.897Z,39.90
2019-03-18T05:33:40.070Z,52.63
2019-03-18T05:36:08.266Z,39.30
2019-03-18T05:38:36.454Z,33.17
2019-03-18T05:41:04.663Z,40.20
2019-03-18T05:43:32.854Z,40.43
2019-03-18T05:46:01.057Z,48.10
2019-03-18T05:48:29.244Z,42.90
2019-03-18T05:50:57.446Z,44.83
2019-03-18T05:53:25.648Z,50.03
2019-03-18T05:55:53.842Z,42.33
2019-03-18T05:58:22.039Z,34.63
2019-03-18T06:00:50.231Z,50.90
2019-03-18T06:03:18.430Z,43.10
2019-03-18T06:05:46.624Z,50.50
2019-03-18T06:08:14.825Z,46.93
2019-03-18T06:10:43.022Z,49.67
2019-03-18T06:13:11.220Z,39.30
2019-03-18T06:15:39.881Z,42.83
2019-03-18T06:18:08.087Z,47.87
2019-03-18T06:20:36.281Z,49.80
2019-03-18T06:23:04.489Z,58.30
2019-03-18T06:25:32.685Z,43.27
2019-03-18T06:28:00.899Z,34.17
2019-03-18T06:30:29.102Z,25.30
2019-03-18T06:32:57.322Z,36.30
2019-03-18T06:35:25.520Z,26.07
2019-03-18T06:37:53.726Z,31.43
2019-03-18T06:40:21.924Z,32.03
2019-03-18T06:42:50.134Z,22.03
2019-03-18T06:45:18.329Z,33.70
2019-03-18T06:47:46.553Z,24.87
2019-03-18T06:50:14.751Z,22.37
2019-03-18T06:52:42.956Z,28.10
2019-03-18T06:55:11.155Z,30.93
2019-03-18T06:57:39.367Z,37.90
2019-03-18T07:00:14.737Z,25.83
2019-03-18T07:02:42.953Z,31.93
2019-03-18T07:05:11.419Z,22.00
2019-03-18T07:07:39.628Z,23.53
2019-03-18T07:10:10.200Z,39.63
2019-03-18T07:12:38.378Z,25.97
2019-03-18T07:15:06.576Z,33.97
2019-03-18T07:17:34.784Z,33.30
2019-03-18T07:20:03.350Z,25.70
2019-03-18T07:22:31.569Z,37.07
2019-03-18T07:24:59.766Z,28.37
2019-03-18T07:27:27.981Z,41.53
2019-03-18T07:29:56.173Z,42.40
2019-03-18T07:32:24.383Z,46.07
2019-03-18T07:34:52.586Z,42.47
2019-03-18T07:37:20.807Z,37.90
2019-03-18T07:39:49.004Z,42.20
2019-03-18T07:42:17.206Z,35.37
2019-03-18T07:44:45.425Z,46.07
2019-03-18T07:47:13.625Z,37.30
2019-03-18T07:49:41.840Z,36.33
2019-03-18T07:52:10.041Z,36.23
2019-03-18T07:54:38.235Z,29.03
2019-03-18T07:57:06.515Z,33.67
2019-03-18T07:59:34.719Z,46.80
2019-03-18T08:02:02.943Z,42.50
2019-03-18T08:04:37.286Z,41.30
2019-03-18T08:07:02.303Z,38.90
2019-03-18T08:09:30.514Z,26.60
2019-03-18T08:11:58.716Z,38.47
2019-03-18T08:14:26.936Z,30.27
2019-03-18T08:16:55.134Z,25.33
2019-03-18T08:19:23.332Z,25.73
2019-03-18T08:21:51.539Z,20.57
2019-03-18T08:24:19.749Z,17.90
2019-03-18T08:26:47.942Z,15.27
2019-03-18T08:29:16.156Z,17.27
2019-03-18T08:31:44.357Z,23.53
2019-03-18T08:34:12.550Z,22.50
2019-03-18T08:36:40.763Z,13.27
2019-03-18T08:39:08.970Z,19.20
2019-03-18T08:41:37.171Z,15.50
2019-03-18T08:44:05.469Z,22.57
2019-03-18T08:46:33.659Z,18.27
2019-03-18T08:49:01.855Z,15.27
2019-03-18T08:51:30.071Z,16.73
2019-03-18T08:53:58.267Z,15.30
2019-03-18T08:56:29.501Z,17.00
2019-03-18T08:58:56.399Z,16.23
2019-03-18T09:01:24.612Z,21.47
2019-03-18T09:03:52.809Z,21.97
2019-03-18T09:06:21.022Z,20.23
2019-03-18T09:08:49.216Z,19.50
2019-03-18T09:11:17.431Z,24.43
2019-03-18T09:13:46.369Z,20.83
2019-03-18T09:16:14.580Z,20.40
2019-03-18T09:18:42.775Z,20.83
2019-03-18T09:21:10.994Z,26.67
2019-03-18T09:23:39.193Z,29.23
2019-03-18T09:26:07.398Z,26.20
2019-03-18T09:28:35.600Z,26.40
2019-03-18T09:31:03.823Z,28.33
2019-03-18T09:33:32.016Z,27.27
2019-03-18T09:36:00.212Z,34.57
2019-03-18T09:38:28.420Z,28.63
2019-03-18T09:40:56.620Z,35.00
2019-03-18T09:43:24.825Z,27.63
2019-03-18T09:45:54.581Z,29.03
2019-03-18T09:48:22.886Z,31.67
2019-03-18T09:50:51.082Z,25.80
2019-03-18T09:53:19.319Z,30.33
2019-03-18T09:55:47.518Z,29.17
2019-03-18T09:58:15.714Z,35.80
2019-03-18T10:00:43.924Z,32.80
2019-03-18T10:03:12.128Z,42.83
2019-03-18T10:05:40.347Z,33.30
2019-03-18T10:08:08.551Z,45.60
2019-03-18T10:10:36.750Z,52.73
2019-03-18T10:13:04.955Z,44.23
2019-03-18T10:15:33.152Z,33.20
2019-03-18T10:18:02.994Z,46.47
2019-03-18T10:20:31.193Z,46.00
2019-03-18T10:22:59.456Z,40.07
2019-03-18T10:25:27.667Z,42.13
2019-03-18T10:27:55.870Z,31.67
2019-03-18T10:30:24.087Z,33.33
2019-03-18T10:32:52.281Z,20.13
2019-03-18T10:35:20.481Z,22.60
2019-03-18T10:37:48.695Z,33.73
2019-03-18T10:40:16.889Z,27.97
2019-03-18T10:42:45.111Z,24.73
2019-03-18T10:45:13.859Z,19.53
2019-03-18T10:47:42.045Z,24.17
2019-03-18T10:50:15.644Z,16.77
2019-03-18T10:52:43.888Z,24.67
2019-03-18T10:55:12.066Z,9.53
2019-03-18T10:57:40.269Z,13.27
2019-03-18T11:00:14.530Z,14.23
2019-03-18T11:02:44.985Z,29.47
2019-03-18T11:05:12.651Z,36.70
2019-03-18T11:07:40.851Z,33.23
2019-03-18T11:10:15.816Z,46.13
2019-03-18T11:12:44.019Z,32.87
2019-03-18T11:15:19.387Z,42.77
2019-03-18T11:17:47.588Z,51.00
2019-03-18T11:20:16.118Z,35.97
2019-03-18T11:22:44.567Z,37.80
2019-03-18T11:25:13.703Z,37.50
2019-03-18T11:27:41.912Z,33.30
2019-03-18T11:30:17.726Z,26.00
2019-03-18T11:32:45.919Z,33.07
2019-03-18T11:35:14.143Z,29.43
2019-03-18T11:37:43.965Z,24.53
2019-03-18T11:40:13.608Z,27.17
2019-03-18T11:42:41.811Z,24.27
2019-03-18T11:45:11.954Z,28.00
2019-03-18T11:47:40.154Z,36.17
2019-03-18T11:50:16.440Z,35.40
2019-03-18T11:52:44.714Z,28.03
2019-03-18T11:55:17.454Z,38.13
2019-03-18T11:57:45.670Z,19.97
2019-03-18T12:00:18.601Z,24.50
2019-03-18T12:02:46.800Z,20.20
2019-03-18T12:05:25.628Z,29.87
2019-03-18T12:07:53.858Z,28.60
2019-03-18T12:10:25.364Z,28.70
2019-03-18T12:12:51.967Z,24.03
2019-03-18T12:15:21.779Z,23.53
2019-03-18T12:17:50.102Z,23.00
2019-03-18T12:20:24.846Z,34.20
2019-03-18T12:22:48.217Z,32.13
2019-03-18T12:25:16.432Z,33.03
2019-03-18T12:27:44.633Z,34.03
2019-03-18T12:30:16.103Z,27.17
2019-03-18T12:32:44.307Z,26.60
2019-03-18T12:35:12.531Z,26.27
2019-03-18T12:37:40.727Z,27.40
2019-03-18T12:40:14.085Z,34.30
2019-03-18T12:42:42.305Z,28.90
2019-03-18T12:45:19.971Z,30.43
2019-03-18T12:47:48.661Z,24.83
2019-03-18T12:50:18.885Z,28.60
2019-03-18T12:52:47.104Z,35.30
2019-03-18T12:55:15.295Z,40.00
2019-03-18T12:57:43.502Z,33.50
2019-03-18T13:00:19.663Z,41.07
2019-03-18T13:02:47.950Z,34.50
2019-03-18T13:05:16.143Z,42.47
2019-03-18T13:07:44.354Z,29.27
2019-03-18T13:10:14.897Z,36.43
2019-03-18T13:12:43.088Z,27.00
2019-03-18T13:15:13.972Z,22.60
2019-03-18T13:17:43.869Z,23.47
2019-03-18T13:20:13.806Z,16.17
2019-03-18T13:22:42.003Z,14.30
2019-03-18T13:25:15.110Z,18.60
2019-03-18T13:27:43.313Z,34.57
2019-03-18T13:30:16.149Z,23.77
2019-03-18T13:32:44.349Z,21.43
2019-03-18T13:35:12.556Z,27.27
2019-03-18T13:37:40.938Z,37.20
2019-03-18T13:40:11.065Z,28.87
2019-03-18T13:42:39.746Z,32.50
2019-03-18T13:45:11.213Z,34.57
2019-03-18T13:47:39.417Z,31.13
2019-03-18T13:50:12.515Z,36.23
2019-03-18T13:52:40.720Z,30.67
2019-03-18T13:55:09.189Z,33.03
2019-03-18T13:57:37.646Z,26.63
2019-03-18T14:00:16.785Z,35.00
2019-03-18T14:02:45.009Z,36.33
2019-03-18T14:05:13.215Z,35.87
2019-03-18T14:07:41.419Z,34.60
2019-03-18T14:10:20.900Z,42.13
2019-03-18T14:12:49.094Z,26.07
2019-03-18T14:15:20.904Z,24.87
2019-03-18T14:17:49.104Z,24.27
2019-03-18T14:20:19.783Z,30.20
2019-03-18T14:22:47.985Z,21.63
2019-03-18T14:25:16.177Z,20.67
2019-03-18T14:27:44.390Z,29.27
2019-03-18T14:30:17.351Z,41.23
2019-03-18T14:32:45.567Z,28.10
2019-03-18T14:35:13.904Z,34.17
2019-03-18T14:37:42.117Z,18.10
2019-03-18T14:40:17.833Z,32.90
2019-03-18T14:42:46.048Z,20.50
2019-03-18T14:45:24.621Z,29.50
2019-03-18T14:47:52.831Z,22.60
2019-03-18T14:50:21.034Z,27.63
2019-03-18T14:52:49.263Z,20.67
2019-03-18T14:55:18.176Z,25.60
2019-03-18T14:57:46.390Z,33.77
2019-03-18T15:00:23.608Z,29.87
2019-03-18T15:02:51.821Z,30.30
2019-03-18T15:05:20.022Z,34.23
2019-03-18T15:07:48.293Z,40.50
2019-03-18T15:10:23.462Z,38.37
2019-03-18T15:12:51.666Z,36.37
2019-03-18T15:15:19.931Z,36.80
2019-03-18T15:17:48.130Z,31.17
2019-03-18T15:20:17.890Z,34.00
2019-03-18T15:22:46.093Z,34.13
2019-03-18T15:25:27.740Z,39.83
2019-03-18T15:27:55.943Z,40.47
2019-03-18T15:30:24.147Z,33.67
2019-03-18T15:32:52.355Z,28.73
2019-03-18T15:35:20.549Z,24.23
2019-03-18T15:37:48.757Z,17.20
2019-03-18T15:40:20.826Z,23.23
2019-03-18T15:42:49.113Z,20.07
2019-03-18T15:45:18.253Z,15.00
2019-03-18T15:47:46.464Z,25.40
2019-03-18T15:50:16.406Z,35.77
2019-03-18T15:52:44.620Z,32.03
2019-03-18T15:55:12.816Z,39.07
2019-03-18T15:57:41.026Z,23.83
2019-03-18T16:00:12.120Z,26.37
2019-03-18T16:02:40.330Z,38.83
2019-03-18T16:05:08.858Z,42.17
2019-03-18T16:07:37.074Z,37.47
2019-03-18T16:10:08.415Z,36.17
2019-03-18T16:12:36.726Z,40.93
2019-03-18T16:15:07.168Z,36.83
2019-03-18T16:17:35.459Z,33.63
2019-03-18T16:20:04.221Z,38.73
2019-03-18T16:22:32.428Z,41.20
2019-03-18T16:25:00.633Z,43.93
2019-03-18T16:27:28.844Z,28.77
2019-03-18T16:29:57.043Z,28.37
2019-03-18T16:32:25.501Z,32.93
2019-03-18T16:34:53.702Z,35.07
2019-03-18T16:37:21.908Z,45.87
2019-03-18T16:39:50.357Z,31.07
2019-03-18T16:42:18.650Z,52.03
2019-03-18T16:44:46.844Z,38.73
2019-03-18T16:47:15.056Z,41.20
2019-03-18T16:49:43.257Z,42.27
2019-03-18T16:52:11.468Z,35.93
2019-03-18T16:54:39.680Z,32.60
2019-03-18T16:57:07.882Z,43.87
2019-03-18T16:59:36.083Z,38.27
2019-03-18T17:02:04.292Z,39.17
2019-03-18T17:04:32.498Z,31.63
2019-03-18T17:07:00.707Z,33.93
2019-03-18T17:09:28.909Z,39.20
2019-03-18T17:11:57.124Z,41.97
2019-03-18T17:14:25.319Z,36.70
2019-03-18T17:16:53.523Z,27.83
2019-03-18T17:19:21.738Z,39.57
2019-03-18T17:21:50.015Z,33.30
2019-03-18T17:24:18.226Z,33.50
2019-03-18T17:26:46.427Z,38.63
2019-03-18T17:29:14.644Z,38.80
2019-03-18T17:31:42.843Z,39.07
2019-03-18T17:34:11.040Z,29.97
2019-03-18T17:36:39.253Z,42.53
2019-03-18T17:39:08.007Z,43.67
2019-03-18T17:41:36.213Z,41.13
2019-03-18T17:44:04.416Z,30.90
2019-03-18T17:46:32.883Z,36.93
2019-03-18T17:49:01.334Z,43.23
2019-03-18T17:51:29.943Z,39.20
2019-03-18T17:53:58.301Z,25.67
2019-03-18T17:56:30.597Z,39.07
2019-03-18T17:58:56.727Z,37.60
2019-03-18T18:01:24.995Z,35.07
2019-03-18T18:03:53.209Z,42.43
2019-03-18T18:06:21.727Z,32.07
2019-03-18T18:08:49.936Z,32.17
2019-03-18T18:11:18.180Z,40.87
2019-03-18T18:13:46.672Z,48.67
2019-03-18T18:16:15.144Z,31.37
2019-03-18T18:18:43.645Z,35.50
2019-03-18T18:21:12.108Z,48.73
2019-03-18T18:23:40.600Z,37.03
2019-03-18T18:26:08.787Z,40.90
2019-03-18T18:28:37.064Z,41.87
2019-03-18T18:31:05.522Z,43.07
2019-03-18T18:33:34.023Z,39.13
2019-03-18T18:36:02.225Z,40.13
2019-03-18T18:38:30.443Z,42.57
2019-03-18T18:40:58.939Z,46.87
2019-03-18T18:43:27.438Z,41.33
2019-03-18T18:45:55.932Z,42.00
2019-03-18T18:48:24.384Z,37.00
2019-03-18T18:50:52.945Z,41.73
2019-03-18T18:53:26.410Z,51.27
2019-03-18T18:55:51.363Z,34.93
2019-03-18T18:58:19.560Z,42.63
2019-03-18T19:00:47.818Z,51.23
2019-03-18T19:03:16.290Z,52.93
2019-03-18T19:05:44.779Z,39.97
2019-03-18T19:08:13.250Z,41.17
2019-03-18T19:10:41.742Z,54.33
2019-03-18T19:13:10.216Z,44.80
2019-03-18T19:15:42.498Z,45.53
2019-03-18T19:18:10.759Z,48.23
2019-03-18T19:20:39.262Z,43.37
2019-03-18T19:23:07.724Z,42.60
2019-03-18T19:25:36.288Z,49.23
2019-03-18T19:28:05.324Z,44.30
2019-03-18T19:30:33.714Z,53.17
2019-03-18T19:33:03.807Z,45.40
2019-03-18T19:35:32.196Z,36.50
2019-03-18T19:38:00.517Z,46.23
2019-03-18T19:40:28.728Z,38.17
2019-03-18T19:42:57.053Z,41.60
2019-03-18T19:45:25.527Z,44.50
2019-03-18T19:47:53.768Z,45.07
2019-03-18T19:50:24.458Z,31.40
2019-03-18T19:52:52.910Z,44.20
2019-03-18T19:55:21.099Z,44.73
2019-03-18T19:57:49.550Z,37.20
2019-03-18T20:00:23.603Z,27.97
2019-03-18T20:02:51.929Z,38.80
2019-03-18T20:05:20.137Z,42.57
2019-03-18T20:07:48.605Z,36.67
2019-03-18T20:10:18.104Z,36.00
2019-03-18T20:12:46.590Z,32.50
2019-03-18T20:15:15.695Z,43.80
2019-03-18T20:17:44.056Z,36.83
2019-03-18T20:20:15.022Z,33.87
2019-03-18T20:22:43.611Z,31.97
2019-03-18T20:25:12.872Z,44.53
2019-03-18T20:27:41.090Z,35.20
2019-03-18T20:30:15.336Z,38.00
2019-03-18T20:32:43.552Z,29.97
2019-03-18T20:35:14.186Z,37.33
2019-03-18T20:37:42.660Z,40.13
2019-03-18T20:40:14.846Z,36.13
2019-03-18T20:42:43.202Z,33.80
2019-03-18T20:45:16.428Z,30.17
2019-03-18T20:47:44.830Z,36.97
2019-03-18T20:50:18.266Z,44.43
2019-03-18T20:52:46.862Z,32.57
2019-03-18T20:55:15.793Z,35.07
2019-03-18T20:57:44.348Z,39.87
2019-03-18T21:00:18.779Z,33.13
2019-03-18T21:02:46.984Z,36.20
2019-03-18T21:05:15.427Z,31.17
2019-03-18T21:07:43.880Z,32.50
2019-03-18T21:10:13.329Z,30.60
2019-03-18T21:12:41.873Z,40.67
2019-03-18T21:15:14.666Z,38.53
2019-03-18T21:17:42.923Z,40.07
2019-03-18T21:20:18.811Z,24.47
2019-03-18T21:22:47.065Z,38.90
2019-03-18T21:25:15.791Z,29.23
2019-03-18T21:27:43.997Z,30.90
2019-03-18T21:30:15.761Z,41.80
2019-03-18T21:32:43.989Z,36.67
2019-03-18T21:35:12.538Z,25.37
2019-03-18T21:37:40.752Z,35.87
2019-03-18T21:40:16.617Z,21.07
2019-03-18T21:42:45.177Z,35.83
2019-03-18T21:45:18.483Z,37.23
2019-03-18T21:47:46.747Z,26.20
2019-03-18T21:50:15.831Z,41.77
2019-03-18T21:52:44.041Z,29.57
2019-03-18T21:55:12.576Z,35.37
2019-03-18T21:57:40.798Z,33.00
2019-03-18T22:00:19.714Z,33.90
2019-03-18T22:02:47.942Z,33.07
2019-03-18T22:05:16.207Z,37.40
2019-03-18T22:07:44.488Z,43.07
2019-03-18T22:10:17.351Z,30.10
2019-03-18T22:12:46.139Z,37.73
2019-03-18T22:15:14.675Z,44.50
2019-03-18T22:17:42.872Z,27.67
2019-03-18T22:20:13.681Z,31.67
2019-03-18T22:22:41.896Z,33.33
2019-03-18T22:25:11.439Z,33.83
2019-03-18T22:27:39.630Z,30.40
2019-03-18T22:30:13.216Z,35.33
2019-03-18T22:32:41.576Z,37.37
2019-03-18T22:35:10.741Z,31.27
2019-03-18T22:37:38.936Z,35.17
2019-03-18T22:40:09.787Z,30.73
2019-03-18T22:42:37.988Z,37.70
2019-03-18T22:45:11.955Z,40.40
2019-03-18T22:47:40.150Z,41.17
2019-03-18T22:50:10.715Z,44.40
2019-03-18T22:52:38.875Z,37.97
2019-03-18T22:55:09.675Z,38.63
2019-03-18T22:57:38.348Z,44.70
2019-03-18T23:00:39.986Z,31.30
2019-03-18T23:03:08.179Z,31.63
2019-03-18T23:05:36.387Z,27.67
2019-03-18T23:08:04.833Z,39.33
2019-03-18T23:10:33.053Z,24.73
2019-03-18T23:13:01.239Z,26.90
2019-03-18T23:15:29.459Z,49.40
2019-03-18T23:17:57.656Z,41.80
2019-03-18T23:20:25.862Z,34.47
2019-03-18T23:22:54.077Z,30.40
2019-03-18T23:25:22.274Z,34.93
2019-03-18T23:27:50.477Z,38.27
2019-03-18T23:30:18.683Z,31.67
2019-03-18T23:32:46.885Z,42.90
2019-03-18T23:35:15.147Z,32.47
2019-03-18T23:37:43.342Z,31.10
2019-03-18T23:40:12.494Z,33.87
2019-03-18T23:42:40.690Z,39.80
2019-03-18T23:45:09.437Z,26.60
2019-03-18T23:47:37.634Z,33.77
2019-03-18T23:50:10.525Z,26.17
2019-03-18T23:52:38.805Z,34.60
2019-03-18T23:55:18.162Z,22.83
2019-03-18T23:57:38.279Z,31.03
